Time;durP1;ratioP1;P1;durP2;ratioP2;P2;SDS_P1;SDS_P2;PMS_P1;PMS_P2;Temp;Humidity;BMP_temperature;BMP_pressure;BME280_temperature;BME280_humidity;BME280_pressure;Samples;Min_cycle;Max_cycle;Signal;HPM_P1;HPM_P2
2022/03/25 00:02:08;;;;;;;8.07;6.38;;;18.10;50.00;;;;;;5051524;28;20172;-70
2022/03/25 00:04:33;;;;;;;7.30;6.60;;;18.00;50.00;;;;;;5051140;28;20183;-68
2022/03/25 00:07:02;;;;;;;7.93;6.57;;;18.10;50.00;;;;;;5051604;28;20198;-71
2022/03/25 00:09:27;;;;;;;8.43;6.47;;;18.10;50.00;;;;;;5051415;28;20559;-72
2022/03/25 00:11:56;;;;;;;6.68;6.07;;;18.00;50.00;;;;;;5051131;28;20175;-73
2022/03/25 00:14:24;;;;;;;6.50;5.90;;;18.00;50.00;;;;;;5051447;28;20236;-73
2022/03/25 00:16:50;;;;;;;7.72;6.28;;;18.00;50.00;;;;;;5051716;28;20171;-72
2022/03/25 00:19:16;;;;;;;7.28;6.53;;;18.00;50.00;;;;;;5050569;28;20222;-72
2022/03/25 00:21:41;;;;;;;7.35;6.63;;;18.00;50.00;;;;;;5051542;28;20201;-73
2022/03/25 00:24:07;;;;;;;7.30;5.97;;;18.00;50.00;;;;;;5051279;28;20186;-73
2022/03/25 00:26:33;;;;;;;6.93;6.30;;;18.00;50.00;;;;;;5050978;28;20519;-72
2022/03/25 00:28:58;;;;;;;6.88;6.18;;;17.90;50.00;;;;;;5051520;28;20537;-72
2022/03/25 00:31:24;;;;;;;7.35;6.35;;;17.90;50.00;;;;;;5051305;28;20257;-72
2022/03/25 00:33:52;;;;;;;7.43;6.72;;;17.90;50.00;;;;;;5050774;28;20174;-70
2022/03/25 00:36:18;;;;;;;7.05;6.35;;;17.90;50.00;;;;;;5050991;28;20630;-70
2022/03/25 00:38:44;;;;;;;8.52;7.00;;;17.90;50.00;;;;;;5051219;28;20230;-70
2022/03/25 00:41:12;;;;;;;8.27;7.43;;;17.90;50.00;;;;;;5050467;28;20182;-72
2022/03/25 00:43:38;;;;;;;8.07;6.60;;;17.90;50.10;;;;;;5051493;28;20305;-73
2022/03/25 00:46:03;;;;;;;8.05;7.10;;;17.90;50.10;;;;;;5051428;28;20262;-73
2022/03/25 00:48:29;;;;;;;7.72;7.00;;;17.90;50.20;;;;;;5050501;28;20730;-71
2022/03/25 00:50:55;;;;;;;8.07;7.22;;;17.90;50.20;;;;;;5051197;28;20182;-72
2022/03/25 00:53:25;;;;;;;7.20;6.53;;;17.90;50.30;;;;;;5050394;28;20265;-73
2022/03/25 00:55:52;;;;;;;7.38;6.68;;;17.80;50.20;;;;;;5053782;28;20171;-73
2022/03/25 00:58:18;;;;;;;8.52;7.63;;;17.80;50.20;;;;;;5054616;28;20328;-70
2022/03/25 01:00:44;;;;;;;8.35;7.15;;;17.80;50.20;;;;;;5054201;28;20179;-70
2022/03/25 01:03:10;;;;;;;8.48;7.60;;;17.80;50.20;;;;;;5054638;28;20178;-70
2022/03/25 01:05:35;;;;;;;8.07;7.22;;;17.80;50.30;;;;;;5055158;28;20167;-69
2022/03/25 01:08:01;;;;;;;7.95;7.15;;;17.80;50.20;;;;;;5054396;28;20276;-73
2022/03/25 01:10:26;;;;;;;8.00;7.20;;;17.80;50.30;;;;;;5054567;28;20579;-72
2022/03/25 01:12:52;;;;;;;7.45;6.75;;;17.80;50.30;;;;;;5054998;28;20257;-73
2022/03/25 01:15:17;;;;;;;8.70;7.80;;;17.70;50.30;;;;;;5053750;28;20167;-73
2022/03/25 01:17:43;;;;;;;7.90;7.13;;;17.80;50.30;;;;;;5054565;28;20215;-73
2022/03/25 01:20:09;;;;;;;8.50;7.60;;;17.80;50.30;;;;;;5054377;28;20190;-73
2022/03/25 01:22:35;;;;;;;8.70;7.82;;;17.80;50.30;;;;;;5054047;28;20179;-72
2022/03/25 01:25:01;;;;;;;8.77;7.88;;;17.80;50.30;;;;;;5054677;28;20183;-72
2022/03/25 01:27:26;;;;;;;9.43;8.43;;;17.80;50.30;;;;;;5054341;28;20706;-72
2022/03/25 01:29:54;;;;;;;8.75;7.95;;;17.70;50.30;;;;;;5053728;28;20662;-71
2022/03/25 01:32:20;;;;;;;9.10;8.20;;;17.80;50.30;;;;;;5054192;28;20233;-71
2022/03/25 01:34:45;;;;;;;8.38;7.57;;;17.70;50.30;;;;;;5054275;28;20195;-70
2022/03/25 01:37:11;;;;;;;8.38;7.47;;;17.70;50.30;;;;;;5053274;28;20199;-72
2022/03/25 01:39:37;;;;;;;8.20;7.40;;;17.70;50.30;;;;;;5054341;28;20210;-72
2022/03/25 01:42:02;;;;;;;8.98;7.93;;;17.70;50.30;;;;;;5054299;28;20171;-72
2022/03/25 01:44:29;;;;;;;8.80;8.00;;;17.70;50.40;;;;;;5053213;28;20193;-72
2022/03/25 01:46:55;;;;;;;8.55;7.57;;;17.70;50.30;;;;;;5054049;28;20190;-72
2022/03/25 01:49:23;;;;;;;10.23;8.60;;;17.70;50.30;;;;;;5053666;28;20187;-73
2022/03/25 01:51:56;;;;;;;9.07;8.10;;;17.70;50.30;;;;;;5053572;28;20186;-72
2022/03/25 01:54:31;;;;;;;10.00;8.48;;;17.60;50.30;;;;;;5054062;28;20251;-72
2022/03/25 01:56:57;;;;;;;8.95;8.05;;;17.60;50.30;;;;;;5053745;28;20237;-71
2022/03/25 01:59:23;;;;;;;9.35;8.45;;;17.60;50.30;;;;;;5053289;28;20330;-70
2022/03/25 02:01:49;;;;;;;10.35;9.02;;;17.60;50.30;;;;;;5053702;28;20262;-70
2022/03/25 02:04:14;;;;;;;8.80;7.90;;;17.60;50.30;;;;;;5052855;28;20186;-69
2022/03/25 02:06:40;;;;;;;10.10;9.20;;;17.60;50.30;;;;;;5052991;28;20171;-72
2022/03/25 02:09:05;;;;;;;8.73;7.93;;;17.60;50.30;;;;;;5053573;28;20179;-71
2022/03/25 02:11:32;;;;;;;9.45;8.63;;;17.60;50.40;;;;;;5052998;28;20168;-71
2022/03/25 02:13:57;;;;;;;8.35;7.63;;;17.60;50.40;;;;;;5053467;28;20183;-72
2022/03/25 02:16:44;;;;;;;8.88;7.97;;;17.60;50.40;;;;;;5053333;28;20198;-71
2022/03/25 02:19:11;;;;;;;9.10;8.30;;;17.60;50.40;;;;;;5052242;28;20329;-71
2022/03/25 02:21:38;;;;;;;9.50;8.32;;;17.60;50.40;;;;;;5053257;28;20183;-73
2022/03/25 02:24:05;;;;;;;9.27;8.38;;;17.60;50.40;;;;;;5053457;28;20179;-72
2022/03/25 02:26:30;;;;;;;9.38;8.48;;;17.60;50.40;;;;;;5052343;28;20179;-72
2022/03/25 02:28:56;;;;;;;9.75;8.82;;;17.60;50.40;;;;;;5052298;28;20171;-71
2022/03/25 02:31:22;;;;;;;9.70;8.70;;;17.60;50.40;;;;;;5052867;28;20199;-71
2022/03/25 02:33:47;;;;;;;10.30;9.30;;;17.50;50.40;;;;;;5052565;28;20250;-70
2022/03/25 02:36:13;;;;;;;9.35;8.35;;;17.50;50.40;;;;;;5052793;28;20179;-69
2022/03/25 02:38:38;;;;;;;9.85;8.90;;;17.50;50.40;;;;;;5052890;28;20214;-70
2022/03/25 02:41:04;;;;;;;9.95;8.43;;;17.50;50.30;;;;;;5052138;28;20564;-69
2022/03/25 02:43:29;;;;;;;10.48;9.35;;;17.50;50.40;;;;;;5052853;28;20186;-71
2022/03/25 02:45:55;;;;;;;9.88;8.88;;;17.50;50.40;;;;;;5052305;28;20217;-72
2022/03/25 02:48:20;;;;;;;10.30;9.20;;;17.50;50.40;;;;;;5052736;28;20175;-72
2022/03/25 02:50:46;;;;;;;9.93;8.93;;;17.40;50.30;;;;;;5052700;28;20255;-72
2022/03/25 02:53:13;;;;;;;9.80;8.85;;;17.50;50.40;;;;;;5051749;28;20650;-72
2022/03/25 02:55:39;;;;;;;10.38;9.32;;;17.50;50.40;;;;;;5052641;28;20175;-71
2022/03/25 02:58:04;;;;;;;9.77;8.75;;;17.50;50.40;;;;;;5052303;28;20215;-70
2022/03/25 03:00:31;;;;;;;10.32;9.20;;;17.50;50.50;;;;;;5050165;28;20649;-70
2022/03/25 03:03:00;;;;;;;10.18;9.18;;;17.50;50.40;;;;;;5052639;28;20324;-70
2022/03/25 03:05:26;;;;;;;11.23;9.73;;;17.50;50.40;;;;;;5052286;28;20171;-70
2022/03/25 03:07:51;;;;;;;10.40;9.23;;;17.40;50.30;;;;;;5051706;28;20186;-71
2022/03/25 03:10:17;;;;;;;9.65;8.75;;;17.40;50.30;;;;;;5051855;28;20163;-72
2022/03/25 03:12:43;;;;;;;10.70;9.70;;;17.40;50.40;;;;;;5052509;28;20185;-72
2022/03/25 03:15:09;;;;;;;10.43;9.35;;;17.40;50.30;;;;;;5051486;28;20171;-71
2022/03/25 03:17:35;;;;;;;9.65;8.75;;;17.40;50.30;;;;;;5052258;28;20222;-71
2022/03/25 03:20:00;;;;;;;11.27;10.13;;;17.40;50.30;;;;;;5052030;28;20179;-71
2022/03/25 03:22:26;;;;;;;10.82;9.73;;;17.40;50.30;;;;;;5051129;28;20179;-72
2022/03/25 03:24:51;;;;;;;11.07;10.02;;;17.40;50.30;;;;;;5052011;28;20187;-71
2022/03/25 03:27:17;;;;;;;10.02;9.02;;;17.40;50.40;;;;;;5051777;28;20653;-72
2022/03/25 03:29:42;;;;;;;10.80;9.45;;;17.40;50.40;;;;;;5051614;28;20183;-70
2022/03/25 03:32:09;;;;;;;11.15;10.05;;;17.40;50.40;;;;;;5051703;28;20184;-69
2022/03/25 03:34:34;;;;;;;11.02;9.98;;;17.40;50.40;;;;;;5052197;28;20183;-69
2022/03/25 03:37:00;;;;;;;10.95;9.85;;;17.40;50.40;;;;;;5051451;28;20221;-69
2022/03/25 03:39:25;;;;;;;10.35;9.35;;;17.40;50.40;;;;;;5051422;28;20250;-71
2022/03/25 03:41:51;;;;;;;10.75;9.65;;;17.40;50.40;;;;;;5051873;28;20595;-71
2022/03/25 03:44:17;;;;;;;10.38;9.38;;;17.40;50.50;;;;;;5051034;28;20658;-71
2022/03/25 03:46:42;;;;;;;12.10;10.90;;;17.40;50.50;;;;;;5052127;28;20167;-71
2022/03/25 03:49:08;;;;;;;11.25;10.15;;;17.30;50.40;;;;;;5051401;28;20252;-72
2022/03/25 03:51:33;;;;;;;11.25;10.15;;;17.30;50.50;;;;;;5051069;28;20186;-72
2022/03/25 03:54:00;;;;;;;11.70;10.60;;;17.30;50.50;;;;;;5051620;28;20270;-72
2022/03/25 03:56:25;;;;;;;11.25;9.95;;;17.30;50.50;;;;;;5050819;28;20368;-70
2022/03/25 03:58:51;;;;;;;10.95;9.95;;;17.30;50.40;;;;;;5051216;28;20239;-69
2022/03/25 04:01:17;;;;;;;12.20;10.98;;;17.30;50.40;;;;;;5051512;28;20218;-69
2022/03/25 04:03:43;;;;;;;12.02;10.65;;;17.30;50.40;;;;;;5051265;28;20231;-70
2022/03/25 04:06:09;;;;;;;12.30;11.00;;;17.30;50.40;;;;;;5051515;28;20197;-69
2022/03/25 04:08:35;;;;;;;11.68;10.57;;;17.30;50.50;;;;;;5051529;28;20610;-71
2022/03/25 04:11:01;;;;;;;12.40;11.20;;;17.30;50.40;;;;;;5051010;28;20171;-72
2022/03/25 04:13:26;;;;;;;11.02;10.00;;;17.30;50.40;;;;;;5051333;28;20179;-72
2022/03/25 04:15:52;;;;;;;12.30;10.80;;;17.20;50.40;;;;;;5051587;28;20172;-72
2022/03/25 04:18:17;;;;;;;11.80;10.60;;;17.30;50.40;;;;;;5050510;28;20209;-72
2022/03/25 04:20:43;;;;;;;12.93;11.68;;;17.20;50.40;;;;;;5051393;28;20203;-72
2022/03/25 04:23:08;;;;;;;12.05;10.90;;;17.20;50.30;;;;;;5051116;28;20175;-71
2022/03/25 04:25:34;;;;;;;11.05;9.95;;;17.20;50.40;;;;;;5050824;28;20175;-72
2022/03/25 04:27:59;;;;;;;12.23;11.02;;;17.20;50.40;;;;;;5051408;28;20175;-71
2022/03/25 04:30:32;;;;;;;12.40;11.20;;;17.20;50.30;;;;;;5052743;28;20185;-71
2022/03/25 04:32:59;;;;;;;13.00;11.80;;;17.20;50.30;;;;;;5054905;28;20501;-69
2022/03/25 04:35:25;;;;;;;12.50;11.27;;;17.20;50.30;;;;;;5055044;28;20179;-70
2022/03/25 04:37:51;;;;;;;12.32;11.23;;;17.20;50.40;;;;;;5055155;28;20294;-71
2022/03/25 04:40:18;;;;;;;12.20;11.00;;;17.20;50.30;;;;;;5054396;28;20182;-70
2022/03/25 04:42:47;;;;;;;12.45;11.13;;;17.20;50.40;;;;;;5055442;28;20439;-70
2022/03/25 04:45:13;;;;;;;11.95;10.75;;;17.20;50.40;;;;;;5055275;28;20179;-72
2022/03/25 04:47:45;;;;;;;12.63;11.38;;;17.20;50.40;;;;;;5054354;28;20673;-73
2022/03/25 04:50:11;;;;;;;12.50;11.30;;;17.20;50.40;;;;;;5054842;28;20179;-74
2022/03/25 04:52:37;;;;;;;12.93;11.63;;;17.10;50.40;;;;;;5054524;28;20171;-73
2022/03/25 04:55:03;;;;;;;12.95;11.75;;;17.10;50.40;;;;;;5055161;28;20528;-72
2022/03/25 04:57:28;;;;;;;12.40;11.10;;;17.10;50.40;;;;;;5054815;28;20233;-71
2022/03/25 04:59:55;;;;;;;13.05;11.75;;;17.10;50.40;;;;;;5054254;28;20227;-70
2022/03/25 05:02:21;;;;;;;14.10;12.38;;;17.10;50.40;;;;;;5054701;28;20183;-70
2022/03/25 05:04:46;;;;;;;13.02;11.75;;;17.10;50.30;;;;;;5054798;28;20646;-70
2022/03/25 05:07:15;;;;;;;13.07;11.77;;;17.10;50.30;;;;;;5054075;28;20605;-71
2022/03/25 05:09:41;;;;;;;12.43;11.23;;;17.10;50.30;;;;;;5054982;28;20181;-73
2022/03/25 05:12:07;;;;;;;14.00;12.70;;;17.10;50.40;;;;;;5054559;28;20261;-71
2022/03/25 05:14:34;;;;;;;12.52;11.32;;;17.10;50.40;;;;;;5054225;28;20195;-71
2022/03/25 05:16:59;;;;;;;13.32;12.00;;;17.10;50.40;;;;;;5054835;28;20270;-71
2022/03/25 05:19:25;;;;;;;13.00;11.80;;;17.10;50.30;;;;;;5054221;28;20718;-72
2022/03/25 05:21:50;;;;;;;12.57;11.38;;;17.10;50.40;;;;;;5054194;28;20183;-72
2022/03/25 05:24:16;;;;;;;13.88;11.52;;;17.00;50.30;;;;;;5054280;28;20185;-72
2022/03/25 05:26:41;;;;;;;13.10;11.90;;;17.10;50.90;;;;;;5054418;28;20636;-72
2022/03/25 05:29:07;;;;;;;13.73;12.32;;;17.00;50.20;;;;;;5054359;28;20213;-69
2022/03/25 05:31:33;;;;;;;13.60;12.20;;;17.00;50.30;;;;;;5054381;28;20254;-70
2022/03/25 05:33:58;;;;;;;13.32;11.98;;;17.00;50.20;;;;;;5054366;28;20622;-70
2022/03/25 05:36:24;;;;;;;13.13;11.93;;;17.00;50.30;;;;;;5053269;28;20227;-70
2022/03/25 05:38:51;;;;;;;13.68;12.38;;;17.00;50.90;;;;;;5054122;28;20580;-71
2022/03/25 05:41:17;;;;;;;14.18;12.68;;;17.00;50.30;;;;;;5053213;28;20567;-71
2022/03/25 05:43:42;;;;;;;14.93;13.40;;;17.00;50.30;;;;;;5053303;28;20651;-71
2022/03/25 05:46:08;;;;;;;14.13;12.73;;;17.00;50.30;;;;;;5053984;28;20194;-72
2022/03/25 05:48:33;;;;;;;14.18;12.63;;;17.00;50.30;;;;;;5054017;28;20265;-72
2022/03/25 05:50:59;;;;;;;13.35;12.15;;;17.00;50.20;;;;;;5053320;28;20532;-73
2022/03/25 05:53:26;;;;;;;13.13;11.93;;;17.00;50.30;;;;;;5053887;28;20705;-73
2022/03/25 05:55:52;;;;;;;14.82;13.35;;;17.00;50.20;;;;;;5053210;28;20227;-72
2022/03/25 05:58:17;;;;;;;14.18;12.82;;;17.00;50.30;;;;;;5053310;28;20234;-71
2022/03/25 06:00:43;;;;;;;14.38;12.98;;;17.00;50.30;;;;;;5053914;28;20202;-69
2022/03/25 06:03:10;;;;;;;14.77;13.30;;;17.00;50.20;;;;;;5052725;28;20932;-69
2022/03/25 06:05:35;;;;;;;14.65;12.65;;;17.00;50.30;;;;;;5053943;28;20186;-70
2022/03/25 06:08:01;;;;;;;14.95;13.45;;;17.00;50.30;;;;;;5053704;28;20176;-72
2022/03/25 06:10:26;;;;;;;13.70;12.32;;;17.00;50.30;;;;;;5052866;28;20183;-73
2022/03/25 06:12:52;;;;;;;14.63;13.23;;;17.00;50.30;;;;;;5053654;28;20191;-73
2022/03/25 06:15:17;;;;;;;14.55;13.05;;;17.00;50.30;;;;;;5053346;28;20171;-73
2022/03/25 06:17:47;;;;;;;15.95;14.35;;;17.00;50.20;;;;;;5052606;28;20210;-72
2022/03/25 06:20:14;;;;;;;14.48;13.05;;;17.00;50.20;;;;;;5053315;28;20535;-73
2022/03/25 06:22:41;;;;;;;15.15;13.65;;;17.00;50.20;;;;;;5053314;28;20638;-71
2022/03/25 06:25:08;;;;;;;13.60;12.18;;;17.00;50.20;;;;;;5052524;28;20185;-72
2022/03/25 06:27:33;;;;;;;14.18;12.88;;;17.00;50.30;;;;;;5053442;28;20195;-73
2022/03/25 06:29:59;;;;;;;15.73;13.15;;;17.00;50.30;;;;;;5053188;28;20264;-72
2022/03/25 06:32:30;;;;;;;14.85;13.35;;;17.00;50.30;;;;;;5052237;28;20673;-70
2022/03/25 06:34:56;;;;;;;14.25;12.95;;;17.00;50.30;;;;;;5053553;28;20202;-69
2022/03/25 06:37:21;;;;;;;15.75;14.25;;;17.00;50.20;;;;;;5052682;28;20211;-70
2022/03/25 06:39:47;;;;;;;14.52;13.13;;;17.00;50.30;;;;;;5052293;28;20742;-71
2022/03/25 06:42:13;;;;;;;14.65;13.25;;;17.00;50.20;;;;;;5052834;28;20172;-71
2022/03/25 06:44:38;;;;;;;14.73;13.15;;;17.00;50.80;;;;;;5053099;28;20657;-72
2022/03/25 06:47:04;;;;;;;13.90;12.60;;;17.00;50.20;;;;;;5052135;28;20289;-72
2022/03/25 06:49:30;;;;;;;14.30;12.93;;;17.00;50.20;;;;;;5052889;28;20179;-73
2022/03/25 06:51:57;;;;;;;14.60;13.10;;;17.10;50.30;;;;;;5052993;28;20179;-73
2022/03/25 06:54:22;;;;;;;13.48;12.18;;;17.10;50.30;;;;;;5051552;28;20263;-72
2022/03/25 06:56:48;;;;;;;13.98;12.52;;;17.10;50.30;;;;;;5052903;28;20176;-71
2022/03/25 06:59:14;;;;;;;14.30;12.85;;;17.10;50.30;;;;;;5051447;28;20665;-70
2022/03/25 07:01:39;;;;;;;14.00;12.60;;;17.10;50.30;;;;;;5052578;28;20258;-70
2022/03/25 07:04:05;;;;;;;13.25;11.95;;;17.10;50.30;;;;;;5052942;28;20175;-72
2022/03/25 07:06:31;;;;;;;13.38;12.15;;;17.10;50.30;;;;;;5051958;28;20178;-70
2022/03/25 07:08:56;;;;;;;13.32;12.00;;;17.10;51.00;;;;;;5051182;28;20542;-73
2022/03/25 07:11:22;;;;;;;14.05;12.68;;;17.10;50.20;;;;;;5051952;28;20210;-73
2022/03/25 07:13:48;;;;;;;14.52;13.10;;;17.10;50.10;;;;;;5051717;28;20186;-71
2022/03/25 07:16:14;;;;;;;14.20;12.80;;;17.10;50.00;;;;;;5051866;28;20237;-72
2022/03/25 07:18:39;;;;;;;13.85;12.45;;;17.20;50.00;;;;;;5052440;28;20226;-73
2022/03/25 07:21:05;;;;;;;15.38;13.88;;;17.20;49.90;;;;;;5051659;28;20195;-73
2022/03/25 07:23:31;;;;;;;21.05;17.52;;;17.20;49.80;;;;;;5052182;28;20190;-73
2022/03/25 07:25:56;;;;;;;22.00;18.70;;;17.30;49.90;;;;;;5052257;28;20198;-67
2022/03/25 07:28:22;;;;;;;18.95;17.00;;;17.20;49.80;;;;;;5051293;28;20175;-72
2022/03/25 07:30:47;;;;;;;19.38;17.27;;;17.30;50.40;;;;;;5052024;28;20179;-74
2022/03/25 07:33:13;;;;;;;20.35;16.92;;;17.30;49.70;;;;;;5051952;28;20535;-72
2022/03/25 07:35:38;;;;;;;21.15;17.00;;;17.40;49.70;;;;;;5051450;28;20547;-66
2022/03/25 07:38:06;;;;;;;19.08;17.10;;;17.50;49.90;;;;;;5051994;28;20214;-70
2022/03/25 07:40:32;;;;;;;18.42;16.45;;;17.60;49.90;;;;;;5052054;28;20171;-71
2022/03/25 07:42:58;;;;;;;19.27;15.68;;;17.70;49.90;;;;;;5051389;28;20218;-71
2022/03/25 07:45:24;;;;;;;18.15;14.00;;;17.90;49.80;;;;;;5051723;28;20210;-70
2022/03/25 07:47:49;;;;;;;15.23;13.10;;;18.10;49.70;;;;;;5051812;28;20205;-70
2022/03/25 07:50:17;;;;;;;14.23;12.43;;;18.30;49.60;;;;;;5050890;28;20317;-71
2022/03/25 07:52:42;;;;;;;12.07;10.90;;;18.40;49.30;;;;;;5051943;28;20195;-70
2022/03/25 07:55:09;;;;;;;12.13;10.93;;;18.70;49.10;;;;;;5051901;28;20179;-70
2022/03/25 07:57:36;;;;;;;11.93;10.65;;;18.80;48.90;;;;;;5051157;28;20195;-72
2022/03/25 08:00:11;;;;;;;10.85;9.85;;;19.00;48.70;;;;;;5051525;28;20316;-73
2022/03/25 08:02:40;;;;;;;10.63;9.63;;;19.10;48.70;;;;;;5051283;28;20178;-70
2022/03/25 08:05:06;;;;;;;9.55;8.75;;;19.00;48.80;;;;;;5050985;28;20191;-72
2022/03/25 08:07:37;;;;;;;9.60;8.80;;;19.00;48.90;;;;;;5051415;28;20182;-71
2022/03/25 08:10:04;;;;;;;10.23;9.18;;;19.00;48.90;;;;;;5049568;28;20193;-72
2022/03/25 08:12:29;;;;;;;9.50;8.60;;;18.90;49.00;;;;;;5051120;28;20175;-73
2022/03/25 08:14:55;;;;;;;10.43;7.72;;;18.90;49.10;;;;;;5051745;28;20236;-72
2022/03/25 08:17:21;;;;;;;9.45;8.23;;;18.90;49.10;;;;;;5050277;28;20530;-73
2022/03/25 08:19:47;;;;;;;8.82;8.02;;;18.90;49.20;;;;;;5051630;28;20259;-73
2022/03/25 08:22:12;;;;;;;8.68;7.90;;;18.90;49.40;;;;;;5051165;28;20201;-74
2022/03/25 08:30:07;;;;;;;9.40;8.55;;;18.80;49.60;;;;;;5051153;28;20252;-73
2022/03/25 08:32:32;;;;;;;12.82;10.68;;;18.70;49.80;;;;;;5050642;28;20646;-72
2022/03/25 08:34:58;;;;;;;12.20;10.63;;;18.70;49.80;;;;;;5051243;28;20178;-74
2022/03/25 08:37:23;;;;;;;12.63;11.05;;;18.70;49.90;;;;;;5050624;28;20183;-75
2022/03/25 08:39:49;;;;;;;11.63;9.73;;;18.60;50.00;;;;;;5049830;28;20179;-73
2022/03/25 08:42:15;;;;;;;10.95;9.85;;;18.60;50.10;;;;;;5049731;28;20171;-74
2022/03/25 08:44:41;;;;;;;10.73;9.73;;;18.50;50.20;;;;;;5049981;28;20181;-74
2022/03/25 08:47:07;;;;;;;11.00;9.90;;;18.50;50.30;;;;;;5050162;28;20261;-74
2022/03/25 08:49:33;;;;;;;11.65;10.48;;;18.50;50.40;;;;;;5050968;28;20617;-75
2022/03/25 08:51:59;;;;;;;10.07;9.05;;;18.50;50.50;;;;;;5050020;28;20201;-75
2022/03/25 08:54:25;;;;;;;12.68;10.48;;;18.50;50.50;;;;;;5050282;28;20190;-70
2022/03/25 08:56:50;;;;;;;10.80;9.90;;;18.50;50.70;;;;;;5051160;28;20514;-71
2022/03/25 08:59:16;;;;;;;11.23;9.55;;;18.60;50.70;;;;;;5049463;28;20237;-70
2022/03/25 09:01:41;;;;;;;10.73;9.10;;;18.60;50.70;;;;;;5051062;28;20248;-69
2022/03/25 09:04:07;;;;;;;10.65;9.02;;;18.60;50.70;;;;;;5050559;28;20207;-72
2022/03/25 09:06:32;;;;;;;11.63;8.95;;;18.60;50.60;;;;;;5050403;28;20190;-70
2022/03/25 09:08:58;;;;;;;9.60;8.55;;;18.60;50.60;;;;;;5051221;28;20191;-70
2022/03/25 09:11:23;;;;;;;9.30;8.40;;;18.60;50.50;;;;;;5050997;28;20174;-71
2022/03/25 09:13:49;;;;;;;9.77;8.32;;;18.60;50.60;;;;;;5050575;28;20537;-72
2022/03/25 09:16:16;;;;;;;11.07;8.02;;;18.70;50.60;;;;;;5051976;28;20626;-74
2022/03/25 09:18:41;;;;;;;8.88;8.00;;;18.70;50.60;;;;;;5055093;28;20572;-73
2022/03/25 09:21:07;;;;;;;8.75;7.88;;;18.70;50.60;;;;;;5053692;28;20178;-73
2022/03/25 09:23:33;;;;;;;8.70;7.75;;;18.70;50.60;;;;;;5054987;28;20186;-73
2022/03/25 09:26:00;;;;;;;9.05;8.18;;;18.80;50.60;;;;;;5054731;28;20167;-73
2022/03/25 09:28:26;;;;;;;8.98;7.32;;;18.70;50.60;;;;;;5053804;28;20179;-72
2022/03/25 09:30:51;;;;;;;8.05;7.30;;;18.80;50.60;;;;;;5054674;28;20186;-71
2022/03/25 09:33:17;;;;;;;8.80;8.00;;;18.80;50.60;;;;;;5054187;28;20183;-69
2022/03/25 09:35:42;;;;;;;8.63;7.70;;;18.80;50.70;;;;;;5053728;28;20190;-70
2022/03/25 09:38:08;;;;;;;8.25;7.53;;;18.80;50.60;;;;;;5054243;28;20630;-72
2022/03/25 09:40:34;;;;;;;8.32;7.40;;;18.90;50.70;;;;;;5054504;28;20210;-70
2022/03/25 09:42:59;;;;;;;8.55;7.28;;;18.90;50.70;;;;;;5053984;28;20354;-71
2022/03/25 09:45:26;;;;;;;8.35;7.55;;;18.80;50.70;;;;;;5054031;28;20214;-71
2022/03/25 09:47:51;;;;;;;7.13;6.43;;;18.90;50.70;;;;;;5054107;28;20182;-71
2022/03/25 09:50:19;;;;;;;8.48;7.57;;;18.90;50.70;;;;;;5053482;28;20257;-69
2022/03/25 09:52:44;;;;;;;7.90;7.10;;;18.90;50.80;;;;;;5054296;28;20606;-69
2022/03/25 09:55:11;;;;;;;7.55;6.75;;;18.90;50.80;;;;;;5053424;28;20190;-71
2022/03/25 09:57:36;;;;;;;7.60;6.90;;;19.00;50.70;;;;;;5054100;28;20529;-72
2022/03/25 10:00:04;;;;;;;8.23;7.43;;;19.00;50.70;;;;;;5053974;28;20231;-73
2022/03/25 10:02:29;;;;;;;8.90;8.07;;;19.00;50.70;;;;;;5053138;28;20210;-71
2022/03/25 10:04:56;;;;;;;10.38;6.68;;;19.00;50.80;;;;;;5053982;28;20607;-69
2022/03/25 10:07:26;;;;;;;7.43;6.78;;;19.00;50.70;;;;;;5053775;28;20172;-70
2022/03/25 10:10:21;;;;;;;8.48;7.53;;;19.10;50.70;;;;;;5053266;28;20179;-70
2022/03/25 10:12:48;;;;;;;8.38;7.45;;;19.00;50.60;;;;;;5048983;28;20180;-72
2022/03/25 10:15:17;;;;;;;8.38;7.45;;;19.00;50.60;;;;;;5053394;28;20255;-72
2022/03/25 10:17:48;;;;;;;10.50;7.45;;;19.10;50.70;;;;;;5052893;28;20175;-68
2022/03/25 10:20:14;;;;;;;8.27;6.78;;;19.10;50.70;;;;;;5053698;28;20218;-72
2022/03/25 10:22:40;;;;;;;9.00;6.82;;;19.10;50.60;;;;;;5053795;28;20187;-74
2022/03/25 10:25:09;;;;;;;7.80;6.97;;;19.10;50.60;;;;;;5052771;28;20225;-73
2022/03/25 10:27:35;;;;;;;7.63;6.90;;;19.10;50.70;;;;;;5052879;28;20171;-73
2022/03/25 10:30:03;;;;;;;6.97;6.18;;;19.10;50.60;;;;;;5053537;28;20179;-73
2022/03/25 10:32:28;;;;;;;10.25;6.57;;;19.10;50.70;;;;;;5052734;28;20186;-72
2022/03/25 10:35:04;;;;;;;7.35;6.50;;;19.10;50.70;;;;;;5051951;28;20179;-71
2022/03/25 10:37:29;;;;;;;8.10;6.38;;;19.20;50.70;;;;;;5051947;28;20178;-71
2022/03/25 10:39:55;;;;;;;7.13;6.32;;;19.20;50.70;;;;;;5053569;28;20179;-71
2022/03/25 10:42:20;;;;;;;6.80;6.20;;;19.20;50.70;;;;;;5052534;28;20194;-72
2022/03/25 10:44:46;;;;;;;7.18;6.47;;;19.20;50.70;;;;;;5052683;28;20171;-72
2022/03/25 10:47:14;;;;;;;7.75;6.18;;;19.20;50.70;;;;;;5052656;28;20539;-71
2022/03/25 10:49:43;;;;;;;7.93;6.25;;;19.20;50.70;;;;;;5053183;28;20207;-71
2022/03/25 10:52:19;;;;;;;7.00;6.18;;;19.20;50.70;;;;;;5052273;28;20270;-73
2022/03/25 10:54:45;;;;;;;7.30;6.60;;;19.30;50.80;;;;;;5051827;28;20175;-72
2022/03/25 10:57:10;;;;;;;7.07;6.38;;;19.30;50.80;;;;;;5052549;28;20164;-71
2022/03/25 10:59:36;;;;;;;7.15;6.50;;;19.30;50.70;;;;;;5050630;28;20590;-70
2022/03/25 11:02:03;;;;;;;6.88;6.18;;;19.30;50.80;;;;;;5052801;28;20175;-71
2022/03/25 11:04:29;;;;;;;6.55;5.82;;;19.40;50.80;;;;;;5052573;28;20198;-66
2022/03/25 11:06:55;;;;;;;7.00;6.40;;;19.40;50.80;;;;;;5050872;28;20178;-70
2022/03/25 11:09:20;;;;;;;6.72;6.13;;;19.30;50.80;;;;;;5052273;28;20187;-69
2022/03/25 11:11:47;;;;;;;7.75;6.35;;;19.40;50.90;;;;;;5052583;28;20707;-72
2022/03/25 11:14:12;;;;;;;6.90;6.28;;;19.40;50.80;;;;;;5051795;28;20274;-74
2022/03/25 11:16:40;;;;;;;5.90;5.30;;;19.40;50.80;;;;;;5052745;28;20278;-74
2022/03/25 11:19:09;;;;;;;6.90;6.20;;;19.40;50.80;;;;;;5051711;28;20211;-73
2022/03/25 11:21:36;;;;;;;5.80;5.22;;;19.40;50.80;;;;;;5051342;28;20186;-72
2022/03/25 11:24:04;;;;;;;6.10;5.60;;;19.40;50.80;;;;;;5050762;28;20191;-71
2022/03/25 11:26:29;;;;;;;7.45;6.28;;;19.40;50.80;;;;;;5033646;28;20242;-73
2022/03/25 11:28:56;;;;;;;6.60;5.97;;;19.50;50.80;;;;;;5052061;28;20263;-71
2022/03/25 11:31:24;;;;;;;6.75;5.88;;;19.50;50.80;;;;;;5051551;28;20175;-71
2022/03/25 11:34:07;;;;;;;6.43;5.85;;;19.50;50.80;;;;;;5051039;28;20251;-70
2022/03/25 11:36:33;;;;;;;6.57;5.97;;;19.70;50.90;;;;;;5049983;28;20167;-72
2022/03/25 11:39:16;;;;;;;6.60;6.00;;;19.50;50.80;;;;;;5050207;28;20219;-67
2022/03/25 11:41:42;;;;;;;7.82;6.97;;;19.50;50.80;;;;;;5050879;28;20175;-67
2022/03/25 11:44:14;;;;;;;7.03;6.40;;;19.50;50.70;;;;;;5051375;28;20175;-68
2022/03/25 11:46:58;;;;;;;7.55;6.85;;;19.50;50.60;;;;;;5051775;28;20171;-76
2022/03/25 11:49:24;;;;;;;9.07;6.55;;;19.60;50.70;;;;;;5050687;28;20179;-74
2022/03/25 11:51:49;;;;;;;6.63;6.00;;;19.50;51.20;;;;;;5051849;28;20614;-74
2022/03/25 11:54:40;;;;;;;7.78;6.78;;;19.50;50.50;;;;;;5051487;28;20192;-70
2022/03/25 11:57:11;;;;;;;7.22;6.45;;;19.60;50.60;;;;;;5051575;28;20178;-72
2022/03/25 11:59:49;;;;;;;8.07;6.93;;;19.60;50.60;;;;;;5050121;28;20234;-69
2022/03/25 12:02:29;;;;;;;8.85;6.13;;;19.60;50.60;;;;;;5050575;28;20673;-72
2022/03/25 12:04:55;;;;;;;7.68;6.35;;;19.70;50.60;;;;;;5051800;28;20187;-68
2022/03/25 12:07:21;;;;;;;7.40;6.13;;;19.70;50.60;;;;;;5051469;28;20175;-68
2022/03/25 12:09:46;;;;;;;7.47;6.38;;;19.70;50.60;;;;;;5049559;28;20221;-68
2022/03/25 12:12:13;;;;;;;6.90;6.30;;;19.70;50.60;;;;;;5051576;28;20175;-73
2022/03/25 12:15:07;;;;;;;8.13;6.78;;;19.70;50.60;;;;;;5051766;28;20175;-74
2022/03/25 12:17:33;;;;;;;8.82;6.57;;;19.70;50.60;;;;;;5050682;28;20167;-75
2022/03/25 12:20:00;;;;;;;7.68;6.93;;;19.70;50.50;;;;;;5051492;28;20288;-75
2022/03/25 12:22:30;;;;;;;8.55;6.18;;;19.70;50.40;;;;;;5049889;28;20257;-72
2022/03/25 12:24:58;;;;;;;6.88;6.28;;;19.70;50.50;;;;;;5051142;28;20199;-72
2022/03/25 12:27:23;;;;;;;8.30;6.57;;;19.70;50.40;;;;;;5051370;28;20189;-73
2022/03/25 12:29:54;;;;;;;8.52;7.03;;;19.70;50.40;;;;;;5049520;28;20245;-72
2022/03/25 12:32:40;;;;;;;7.45;5.63;;;19.70;50.40;;;;;;5051147;28;20183;-71
2022/03/25 12:35:11;;;;;;;7.80;7.05;;;19.70;50.40;;;;;;5050721;28;20538;-71
2022/03/25 12:37:46;;;;;;;9.23;6.70;;;19.70;50.30;;;;;;5050697;28;20179;-72
2022/03/25 12:40:19;;;;;;;7.20;6.50;;;19.70;50.30;;;;;;5049807;28;20185;-73
2022/03/25 12:42:50;;;;;;;8.25;6.72;;;19.70;50.30;;;;;;5051239;28;20190;-71